Time;durP1;ratioP1;P1;durP2;ratioP2;P2;SDS_P1;SDS_P2;PMS_P1;PMS_P2;Temp;Humidity;BMP_temperature;BMP_pressure;BME280_temperature;BME280_humidity;BME280_pressure;Samples;Min_cycle;Max_cycle;Signal;HPM_P1;HPM_P2
2022/04/30 00:02:10;;;;;;;41.25;30.20;;;;;;;17.17;37.09;103065.97;5072621;28;20024;-78
2022/04/30 00:04:41;;;;;;;35.60;27.98;;;;;;;17.32;36.81;103064.06;5073554;28;20020;-78
2022/04/30 00:07:08;;;;;;;39.08;29.10;;;;;;;17.32;36.81;103058.53;5073894;28;20455;-78
2022/04/30 00:09:36;;;;;;;40.40;29.88;;;;;;;17.56;36.85;103056.44;5073743;28;20028;-78
2022/04/30 00:12:03;;;;;;;39.15;29.33;;;;;;;17.63;36.77;103062.41;5074009;28;20489;-78
2022/04/30 00:14:29;;;;;;;40.70;29.52;;;;;;;17.72;36.86;103057.81;5073175;28;20540;-78
2022/04/30 00:16:55;;;;;;;37.42;28.55;;;;;;;17.80;36.86;103055.47;5074129;28;20378;-78
2022/04/30 00:19:22;;;;;;;44.30;28.92;;;;;;;17.84;36.64;103046.28;5072676;28;20028;-78
2022/04/30 00:21:49;;;;;;;38.53;29.00;;;;;;;17.89;36.81;103059.16;5073665;28;20024;-78
2022/04/30 00:24:16;;;;;;;39.88;29.02;;;;;;;17.89;36.94;103053.63;5073371;28;20087;-78
2022/04/30 00:26:42;;;;;;;38.90;30.02;;;;;;;17.90;36.81;103056.09;5073353;28;20441;-96
2022/04/30 00:29:08;;;;;;;42.70;30.60;;;;;;;17.93;36.79;103055.50;5073395;28;20064;-78
2022/04/30 00:31:35;;;;;;;36.65;28.25;;;;;;;17.96;36.83;103049.34;5074267;28;20063;-77
2022/04/30 00:34:02;;;;;;;33.85;27.33;;;;;;;17.93;36.99;103049.97;5072730;28;20048;-78
2022/04/30 00:36:28;;;;;;;38.90;29.02;;;;;;;17.96;36.99;103051.28;5073333;28;20076;-78
2022/04/30 00:38:55;;;;;;;38.90;27.63;;;;;;;18.01;37.03;103046.47;5073037;28;20479;-78
2022/04/30 00:41:23;;;;;;;34.13;24.63;;;;;;;18.07;37.00;103046.38;5073295;28;20036;-78
2022/04/30 00:43:51;;;;;;;39.03;27.95;;;;;;;18.16;36.88;103036.22;5072901;28;20108;-78
2022/04/30 00:46:21;;;;;;;33.95;26.48;;;;;;;18.16;36.94;103031.50;5073018;28;20028;-78
2022/04/30 00:48:47;;;;;;;39.83;26.95;;;;;;;18.20;37.01;103035.28;5072529;28;20025;-77
2022/04/30 00:51:15;;;;;;;34.78;26.85;;;;;;;18.21;36.86;103036.94;5073162;28;20092;-78
2022/04/30 00:53:47;;;;;;;34.95;27.05;;;;;;;18.25;36.96;103029.66;5072843;28;20020;-78
2022/04/30 00:56:15;;;;;;;35.95;27.02;;;;;;;18.21;37.10;103031.41;5072981;28;20471;-78
2022/04/30 00:58:45;;;;;;;37.30;28.52;;;;;;;18.26;37.30;103036.00;5072694;28;20400;-78
2022/04/30 01:01:12;;;;;;;36.95;28.98;;;;;;;18.25;37.01;103032.41;5073212;28;20032;-78
2022/04/30 01:03:38;;;;;;;35.00;26.55;;;;;;;18.14;37.43;103033.78;5070749;28;20428;-78
2022/04/30 01:06:06;;;;;;;42.85;29.30;;;;;;;18.11;37.56;103028.84;5072791;28;20016;-78
2022/04/30 01:08:32;;;;;;;37.80;28.13;;;;;;;18.12;37.65;103024.94;5072588;28;20031;-78
2022/04/30 01:11:04;;;;;;;35.85;27.60;;;;;;;18.15;37.68;103018.81;5073035;28;20169;-77
2022/04/30 01:13:34;;;;;;;37.20;27.27;;;;;;;18.12;37.52;103021.34;5072644;28;20163;-78
2022/04/30 01:16:03;;;;;;;37.08;27.17;;;;;;;18.12;37.80;103022.16;5072973;28;20507;-77
2022/04/30 01:18:33;;;;;;;36.83;26.23;;;;;;;18.18;37.63;103015.41;5072015;28;20036;-77
2022/04/30 01:21:05;;;;;;;37.10;28.92;;;;;;;18.13;37.72;103015.50;5072673;28;20407;-78
2022/04/30 01:23:34;;;;;;;36.65;28.25;;;;;;;18.35;37.41;103019.47;5072651;28;20085;-77
2022/04/30 01:26:02;;;;;;;37.13;28.80;;;;;;;18.43;37.29;103021.50;5071708;28;20021;-78
2022/04/30 01:28:29;;;;;;;44.63;28.20;;;;;;;18.45;37.35;103010.97;5073052;28;20151;-78
2022/04/30 01:30:55;;;;;;;39.30;28.83;;;;;;;18.52;37.29;103001.09;5071458;28;20028;-78
2022/04/30 01:38:58;;;;;;;38.67;29.27;;;;;;;18.51;37.36;102999.47;5072551;28;20090;-78
2022/04/30 01:41:26;;;;;;;38.15;29.20;;;;;;;18.51;37.56;102999.47;5072322;28;20040;-78
2022/04/30 01:43:53;;;;;;;39.38;29.05;;;;;;;18.53;37.41;103002.72;5072979;28;20390;-78
2022/04/30 01:46:19;;;;;;;44.55;29.58;;;;;;;18.49;37.47;102996.16;5072461;28;20048;-78
2022/04/30 01:48:45;;;;;;;38.35;28.80;;;;;;;18.49;37.75;103000.88;5071659;28;20103;-78
2022/04/30 01:51:14;;;;;;;39.80;31.45;;;;;;;18.63;37.62;103003.63;5070899;28;20032;-78
2022/04/30 01:53:42;;;;;;;37.45;29.15;;;;;;;18.64;37.56;102997.75;5072352;28;20054;-77
2022/04/30 01:56:08;;;;;;;32.65;27.17;;;;;;;18.71;37.31;102994.59;5072345;28;20037;-78
2022/04/30 01:58:34;;;;;;;39.65;28.73;;;;;;;18.67;37.44;102997.19;5072763;28;20423;-87
2022/04/30 02:01:02;;;;;;;37.25;27.83;;;;;;;18.75;37.44;102993.66;5072190;28;20031;-77
2022/04/30 02:03:29;;;;;;;36.03;27.63;;;;;;;18.78;37.50;102981.94;5071708;28;20164;-77
2022/04/30 02:05:56;;;;;;;37.08;27.70;;;;;;;18.78;37.58;102987.47;5072226;28;20059;-78
2022/04/30 02:08:23;;;;;;;40.80;29.23;;;;;;;18.80;37.49;102978.84;5072188;28;20025;-78
2022/04/30 02:10:49;;;;;;;38.35;29.48;;;;;;;18.80;37.45;102979.66;5072117;28;20497;-78
2022/04/30 02:13:19;;;;;;;34.13;28.05;;;;;;;18.79;37.59;102975.25;5072107;28;20036;-78
2022/04/30 02:15:46;;;;;;;39.22;28.30;;;;;;;18.78;37.54;102976.41;5072099;28;20029;-78
2022/04/30 02:18:14;;;;;;;30.67;24.05;;;;;;;18.77;37.79;102966.47;5071335;28;20025;-77
2022/04/30 02:20:43;;;;;;;35.40;26.13;;;;;;;18.80;37.63;102974.13;5071986;28;20036;-78
2022/04/30 02:23:11;;;;;;;38.40;27.77;;;;;;;18.82;37.41;102966.34;5072104;28;20058;-78
2022/04/30 02:25:38;;;;;;;37.97;29.23;;;;;;;18.83;37.69;102961.63;5072091;28;20155;-78
2022/04/30 02:28:08;;;;;;;35.75;27.15;;;;;;;18.84;37.75;102968.78;5072137;28;20058;-78
2022/04/30 02:30:37;;;;;;;36.92;27.20;;;;;;;18.84;37.65;102955.75;5071773;28;20120;-78
2022/04/30 02:33:08;;;;;;;36.38;25.58;;;;;;;18.90;37.78;102950.09;5071260;28;20036;-78
2022/04/30 02:35:37;;;;;;;32.90;26.27;;;;;;;18.88;37.55;102950.38;5071752;28;20068;-79
2022/04/30 02:38:08;;;;;;;35.20;28.17;;;;;;;18.89;37.79;102948.44;5071974;28;20038;-78
2022/04/30 02:40:36;;;;;;;35.90;27.42;;;;;;;18.91;37.75;102949.78;5075403;28;20025;-78
2022/04/30 02:43:06;;;;;;;34.88;27.20;;;;;;;18.89;37.66;102943.72;5075478;28;20067;-78
2022/04/30 02:45:34;;;;;;;36.47;26.65;;;;;;;18.90;37.64;102944.56;5075451;28;20036;-79
2022/04/30 02:48:03;;;;;;;33.10;26.58;;;;;;;18.89;37.87;102942.91;5074663;28;20025;-78
2022/04/30 02:50:29;;;;;;;32.60;24.60;;;;;;;18.89;37.87;102942.91;5075437;28;20028;-77
2022/04/30 02:52:55;;;;;;;34.47;26.10;;;;;;;18.92;37.67;102942.28;5075477;28;20029;-78
2022/04/30 02:55:23;;;;;;;40.22;28.85;;;;;;;18.92;37.78;102939.50;5075193;28;20074;-78
2022/04/30 03:00:39;;;;;;;33.47;27.60;;;;;;;18.92;37.70;102932.00;5075239;28;20074;-78
2022/04/30 03:03:09;;;;;;;36.30;28.40;;;;;;;18.90;37.92;102928.75;5074438;28;20520;-78
2022/04/30 03:05:39;;;;;;;39.20;29.30;;;;;;;18.87;37.94;102923.00;5075076;28;20029;-78
2022/04/30 03:08:09;;;;;;;;;;;;;;;18.74;38.22;102931.09;5076000;28;20470;-78
2022/04/30 03:10:35;;;;;;;36.97;27.77;;;;;;;18.81;37.92;102931.44;5075317;28;19912;-78
2022/04/30 03:13:01;;;;;;;36.00;27.27;;;;;;;18.83;37.91;102922.84;5075154;28;20032;-78
2022/04/30 03:15:30;;;;;;;37.55;27.52;;;;;;;18.86;37.94;102927.75;5075323;28;20025;-78
2022/04/30 03:23:25;;;;;;;38.15;30.02;;;;;;;18.81;38.12;102925.91;5075782;28;20023;-79
2022/04/30 03:25:52;;;;;;;36.22;28.20;;;;;;;18.78;38.19;102929.31;5074612;28;20028;-78
2022/04/30 03:28:18;;;;;;;33.33;26.50;;;;;;;18.77;38.07;102930.47;5074797;28;20050;-78
2022/04/30 03:30:46;;;;;;;37.67;27.70;;;;;;;18.79;38.06;102919.88;5074537;28;20044;-78
2022/04/30 03:33:12;;;;;;;36.38;28.75;;;;;;;18.82;38.13;102922.03;5073774;28;20029;-78
2022/04/30 03:35:42;;;;;;;34.63;28.63;;;;;;;18.72;38.25;102915.91;5074794;28;20051;-78
2022/04/30 03:38:09;;;;;;;41.00;30.00;;;;;;;18.77;38.22;102918.56;5073473;28;20029;-78
2022/04/30 03:40:40;;;;;;;36.88;27.63;;;;;;;18.78;38.27;102909.13;5075517;28;20025;-93
2022/04/30 03:43:07;;;;;;;41.35;28.80;;;;;;;18.78;38.20;102909.94;5075969;28;20471;-82
2022/04/30 03:45:33;;;;;;;36.92;27.63;;;;;;;18.77;38.38;102905.53;5074947;28;20024;-78
2022/04/30 03:47:58;;;;;;;37.75;28.95;;;;;;;18.75;38.43;102902.28;5073698;28;20075;-78
2022/04/30 03:50:24;;;;;;;34.40;26.35;;;;;;;18.74;38.29;102899.78;5073970;28;20486;-78
2022/04/30 03:52:50;;;;;;;33.25;26.13;;;;;;;18.72;38.31;102900.13;5074474;28;20017;-78
2022/04/30 03:55:15;;;;;;;40.47;28.75;;;;;;;18.70;38.36;102898.81;5074237;28;20025;-78
2022/04/30 03:57:41;;;;;;;37.35;27.05;;;;;;;18.72;38.27;102896.53;5074965;28;20479;-78
2022/04/30 04:00:09;;;;;;;38.28;26.80;;;;;;;18.72;38.48;102880.72;5075254;28;20024;-77
2022/04/30 04:02:39;;;;;;;38.83;27.48;;;;;;;18.73;38.29;102885.13;5073500;28;20028;-78
2022/04/30 04:05:12;;;;;;;37.70;27.85;;;;;;;18.68;38.67;102871.44;5074484;28;20157;-78
2022/04/30 04:07:38;;;;;;;38.10;27.92;;;;;;;18.73;38.53;102882.38;5073905;28;20066;-78
2022/04/30 04:10:04;;;;;;;32.85;25.83;;;;;;;18.74;38.55;102875.72;5074885;28;20534;-77
2022/04/30 04:12:30;;;;;;;42.65;28.05;;;;;;;18.77;38.32;102872.31;5072690;28;20117;-78
2022/04/30 04:17:40;;;;;;;39.75;29.42;;;;;;;18.82;38.43;102874.13;5075091;28;20040;-78
2022/04/30 04:20:07;;;;;;;35.40;27.67;;;;;;;18.90;38.29;102873.34;5076771;28;20028;-78
2022/04/30 04:22:33;;;;;;;35.78;25.98;;;;;;;18.88;38.35;102875.59;5072828;28;20036;-78
2022/04/30 04:27:42;;;;;;;36.70;26.83;;;;;;;18.75;38.65;102871.00;5074098;28;20043;-78
2022/04/30 04:30:08;;;;;;;38.22;28.35;;;;;;;18.84;38.42;102871.84;5076060;28;20444;-77
2022/04/30 04:32:34;;;;;;;40.58;28.38;;;;;;;18.81;38.51;102864.97;5076896;28;20099;-78
2022/04/30 04:34:59;;;;;;;36.13;25.50;;;;;;;18.74;38.67;102863.78;5080593;28;20040;-78
2022/04/30 04:37:25;;;;;;;33.65;27.15;;;;;;;18.73;38.68;102857.44;5076453;28;20038;-78
2022/04/30 04:39:51;;;;;;;42.83;26.02;;;;;;;18.79;38.63;102858.94;5074344;28;20505;-78
2022/04/30 04:42:19;;;;;;;40.72;27.63;;;;;;;18.81;38.52;102859.44;5073123;28;20037;-78
2022/04/30 04:44:46;;;;;;;34.58;26.52;;;;;;;18.79;38.57;102850.63;5073619;28;20048;-78
2022/04/30 04:47:12;;;;;;;35.28;26.90;;;;;;;18.78;38.68;102854.53;5073139;28;20067;-78
2022/04/30 04:49:38;;;;;;;38.17;29.30;;;;;;;18.80;38.79;102852.25;5076306;28;20036;-78
2022/04/30 04:52:04;;;;;;;37.72;27.70;;;;;;;18.85;38.74;102854.91;5074389;28;20028;-77
2022/04/30 04:54:30;;;;;;;31.48;26.27;;;;;;;18.87;38.70;102851.81;5073066;28;20090;-78
2022/04/30 04:56:55;;;;;;;37.65;28.75;;;;;;;18.85;38.85;102848.56;5074330;28;20032;-78
2022/04/30 04:59:21;;;;;;;35.75;27.80;;;;;;;18.76;38.99;102856.81;5074502;28;20079;-80
2022/04/30 05:01:48;;;;;;;37.75;27.27;;;;;;;18.73;39.25;102849.13;5073498;28;20025;-78
2022/04/30 05:04:14;;;;;;;40.88;27.95;;;;;;;18.74;39.18;102849.94;5079849;28;20050;-77
2022/04/30 05:06:39;;;;;;;39.25;28.60;;;;;;;18.62;39.36;102856.06;5072714;28;20021;-78
2022/04/30 05:09:05;;;;;;;39.08;28.73;;;;;;;18.62;39.42;102853.28;5074087;28;20054;-78
2022/04/30 05:11:31;;;;;;;35.42;27.40;;;;;;;18.68;39.32;102862.31;5073076;28;20462;-78
2022/04/30 05:13:56;;;;;;;37.00;27.40;;;;;;;18.69;39.51;102859.22;5074379;28;20025;-78
2022/04/30 05:16:22;;;;;;;42.28;26.55;;;;;;;18.62;39.79;102855.25;5075199;28;20032;-78
2022/04/30 05:18:47;;;;;;;41.67;28.25;;;;;;;18.67;39.55;102863.44;5075505;28;20033;-78
2022/04/30 05:21:13;;;;;;;44.92;29.23;;;;;;;18.72;39.44;102855.81;5074617;28;20406;-83
2022/04/30 05:23:38;;;;;;;35.47;26.90;;;;;;;18.71;39.52;102850.59;5077550;28;20029;-78
2022/04/30 05:26:04;;;;;;;42.42;27.48;;;;;;;18.68;39.78;102857.59;5074277;28;20402;-78
2022/04/30 05:28:29;;;;;;;36.70;27.67;;;;;;;18.79;39.46;102850.63;5074633;28;20078;-78
2022/04/30 05:30:55;;;;;;;36.78;27.50;;;;;;;18.75;39.43;102873.75;5074520;28;20425;-78
2022/04/30 05:33:20;;;;;;;36.03;27.35;;;;;;;18.75;39.56;102871.81;5074161;28;20024;-78
2022/04/30 05:35:46;;;;;;;34.88;27.05;;;;;;;18.80;39.57;102868.06;5073001;28;20051;-78
2022/04/30 05:38:12;;;;;;;33.85;27.10;;;;;;;18.91;39.40;102871.41;5072679;28;20043;-77
2022/04/30 05:40:37;;;;;;;36.75;28.52;;;;;;;18.97;39.54;102873.72;5075165;28;20029;-78
2022/04/30 05:43:04;;;;;;;34.63;27.13;;;;;;;18.87;39.67;102875.94;5072510;28;20033;-78
2022/04/30 05:45:30;;;;;;;38.25;27.95;;;;;;;18.93;39.72;102878.25;5074741;28;20024;-78
2022/04/30 05:47:55;;;;;;;36.42;27.50;;;;;;;18.99;39.56;102881.69;5075071;28;20463;-78
2022/04/30 05:50:29;;;;;;;32.38;26.30;;;;;;;19.05;39.55;102883.22;5071436;28;20032;-78
2022/04/30 05:52:55;;;;;;;38.33;29.30;;;;;;;19.09;39.57;102876.69;5073071;28;20028;-78
2022/04/30 05:55:21;;;;;;;36.83;28.77;;;;;;;19.10;39.44;102881.09;5072892;28;20088;-78
2022/04/30 05:57:47;;;;;;;42.03;28.75;;;;;;;19.04;40.00;102881.53;5073229;28;20077;-78
2022/04/30 06:00:13;;;;;;;41.70;27.67;;;;;;;19.03;40.02;102885.47;5074075;28;20028;-78
2022/04/30 06:02:38;;;;;;;40.28;30.10;;;;;;;19.19;39.71;102880.31;5073886;28;20483;-78
2022/04/30 06:05:04;;;;;;;36.50;29.58;;;;;;;19.23;39.57;102876.59;5076885;28;20044;-78
2022/04/30 06:07:30;;;;;;;36.72;28.65;;;;;;;19.25;39.56;102885.38;5072292;28;20494;-78
2022/04/30 06:09:55;;;;;;;38.75;28.30;;;;;;;19.21;39.96;102880.81;5075848;28;20008;-79
2022/04/30 06:12:21;;;;;;;45.53;31.55;;;;;;;19.30;39.85;102879.72;5075703;28;20037;-78
2022/04/30 06:14:47;;;;;;;35.42;27.73;;;;;;;19.39;39.69;102874.19;5080383;28;20012;-78
2022/04/30 06:17:13;;;;;;;42.15;28.42;;;;;;;19.38;39.72;102881.69;5076647;28;20042;-78
2022/04/30 06:19:38;;;;;;;37.38;28.48;;;;;;;19.35;39.98;102876.81;5078599;28;20039;-78
2022/04/30 06:22:04;;;;;;;36.70;28.23;;;;;;;19.44;40.07;102878.78;5076851;28;20070;-78
2022/04/30 06:24:29;;;;;;;34.80;28.38;;;;;;;19.46;40.17;102882.03;5076636;28;20093;-78
2022/04/30 06:26:55;;;;;;;39.95;30.20;;;;;;;19.59;40.01;102878.38;5076390;28;20033;-78
2022/04/30 06:29:22;;;;;;;42.72;28.92;;;;;;;19.52;40.00;102878.81;5077151;28;20032;-78
2022/04/30 06:31:50;;;;;;;43.35;29.45;;;;;;;19.66;39.89;102884.25;5075770;28;20423;-76
2022/04/30 06:34:16;;;;;;;41.03;29.95;;;;;;;19.73;39.93;102881.81;5076778;28;20033;-76
2022/04/30 06:36:41;;;;;;;38.53;29.75;;;;;;;19.74;39.95;102880.69;5075817;28;20468;-76
2022/04/30 06:39:07;;;;;;;33.33;27.65;;;;;;;19.83;39.86;102878.72;5076085;28;20056;-76
2022/04/30 06:41:33;;;;;;;35.42;27.40;;;;;;;19.99;39.47;102886.56;5076211;28;20106;-76
2022/04/30 06:43:59;;;;;;;37.80;28.77;;;;;;;20.06;39.66;102887.72;5075729;28;20470;-76
2022/04/30 06:46:24;;;;;;;35.80;28.75;;;;;;;20.09;39.69;102891.78;5075102;28;20514;-80
2022/04/30 06:48:50;;;;;;;39.60;29.23;;;;;;;20.11;39.77;102887.56;5075964;28;20413;-76
2022/04/30 06:51:15;;;;;;;37.75;29.85;;;;;;;20.04;39.88;102890.00;5075192;28;20028;-76
2022/04/30 06:59:12;;;;;;;35.45;28.25;;;;;;;20.06;40.06;102890.50;5075830;28;20078;-76
2022/04/30 07:01:44;;;;;;;38.05;29.83;;;;;;;20.05;40.31;102890.84;5074407;28;20461;-76
2022/04/30 07:04:11;;;;;;;37.17;27.08;;;;;;;20.15;40.24;102896.03;5078645;28;20048;-76
2022/04/30 07:06:37;;;;;;;36.92;28.33;;;;;;;20.12;40.40;102894.75;5075339;28;20021;-77
2022/04/30 07:09:06;;;;;;;37.67;27.67;;;;;;;20.22;40.05;102888.06;5075649;28;20052;-76
2022/04/30 07:11:32;;;;;;;35.67;27.60;;;;;;;20.19;40.34;102895.09;5075138;28;20034;-76
2022/04/30 07:13:58;;;;;;;29.75;24.98;;;;;;;20.17;40.50;102889.03;5075892;28;20025;-76
2022/04/30 07:16:24;;;;;;;35.58;25.25;;;;;;;20.15;40.64;102890.50;5074701;28;20435;-76
2022/04/30 07:18:50;;;;;;;38.70;26.83;;;;;;;20.13;40.76;102887.25;5076493;28;20032;-76
2022/04/30 07:21:16;;;;;;;33.22;25.35;;;;;;;20.25;40.80;102890.16;5075180;28;20021;-76
2022/04/30 07:23:42;;;;;;;30.23;22.90;;;;;;;20.32;40.63;102882.16;5074075;28;20039;-76
2022/04/30 07:26:07;;;;;;;29.13;22.45;;;;;;;20.41;40.52;102885.75;5075479;28;20025;-76
2022/04/30 07:28:35;;;;;;;34.97;23.20;;;;;;;20.38;40.62;102885.59;5075442;28;20036;-76
2022/04/30 07:31:02;;;;;;;30.55;21.48;;;;;;;20.38;40.65;102882.81;5075972;28;20032;-80
2022/04/30 07:33:28;;;;;;;31.63;22.73;;;;;;;20.33;40.88;102886.59;5076542;28;20033;-82
2022/04/30 07:35:55;;;;;;;30.02;21.75;;;;;;;20.26;41.23;102886.28;5083264;28;20053;-89
2022/04/30 07:38:21;;;;;;;32.20;21.55;;;;;;;20.27;41.22;102889.84;5078338;28;20040;-78
2022/04/30 07:40:47;;;;;;;30.50;21.45;;;;;;;20.33;41.52;102885.75;5080824;28;20005;-77
2022/04/30 07:43:14;;;;;;;31.58;22.00;;;;;;;20.28;41.43;102883.16;5080168;28;20147;-85
2022/04/30 07:45:39;;;;;;;32.67;23.13;;;;;;;20.43;41.30;102885.44;5085314;28;20028;-96
2022/04/30 07:48:05;;;;;;;36.80;22.98;;;;;;;20.39;41.55;102884.44;5083117;28;20489;-77
2022/04/30 07:50:35;;;;;;;25.25;20.38;;;;;;;20.45;41.45;102883.97;5078125;28;20697;-77
2022/04/30 07:53:05;;;;;;;32.25;23.27;;;;;;;20.46;41.53;102879.25;5076152;28;20079;-77
2022/04/30 07:55:31;;;;;;;29.27;20.67;;;;;;;20.57;41.55;102885.28;5075404;28;20036;-77
2022/04/30 07:57:58;;;;;;;34.10;22.48;;;;;;;20.59;41.65;102883.00;5079162;28;20020;-77
2022/04/30 08:00:25;;;;;;;26.00;22.30;;;;;;;20.73;41.23;102887.19;5079752;28;20031;-77
2022/04/30 08:02:50;;;;;;;30.35;21.45;;;;;;;20.70;41.60;102887.84;5077955;28;20011;-77
2022/04/30 08:05:16;;;;;;;35.20;21.85;;;;;;;20.81;41.43;102885.56;5086508;28;20064;-80
2022/04/30 08:07:42;;;;;;;30.30;22.20;;;;;;;20.90;41.30;102891.88;5083278;28;20046;-77
2022/04/30 08:10:08;;;;;;;25.52;21.55;;;;;;;20.82;41.75;102887.19;5085760;28;20036;-93
2022/04/30 08:12:33;;;;;;;34.55;25.00;;;;;;;20.96;41.60;102886.97;5075409;28;20028;-87
2022/04/30 08:14:59;;;;;;;34.85;23.13;;;;;;;20.96;41.92;102889.75;5073228;28;20020;-81
2022/04/30 08:17:27;;;;;;;31.02;22.63;;;;;;;20.84;42.11;102884.06;5073175;28;20379;-81
2022/04/30 08:19:53;;;;;;;30.67;23.33;;;;;;;20.96;42.08;102882.22;5072985;28;20056;-82
2022/04/30 08:22:19;;;;;;;30.05;23.33;;;;;;;21.10;41.66;102881.22;5073152;28;20031;-83
2022/04/30 08:24:45;;;;;;;30.30;23.95;;;;;;;21.00;42.17;102876.81;5073978;28;20055;-80
2022/04/30 08:27:11;;;;;;;31.63;22.90;;;;;;;20.99;42.17;102870.44;5062595;28;20078;-81
2022/04/30 08:29:36;;;;;;;32.17;23.95;;;;;;;20.99;42.28;102870.44;5066069;28;20429;-81
2022/04/30 08:32:03;;;;;;;30.23;23.48;;;;;;;21.04;42.33;102875.81;5070905;28;20157;-79
2022/04/30 08:34:29;;;;;;;35.70;24.88;;;;;;;20.94;42.25;102867.88;5073922;28;20024;-74
2022/04/30 08:36:55;;;;;;;29.05;22.80;;;;;;;21.03;42.42;102870.59;5075130;28;20048;-83
2022/04/30 08:39:21;;;;;;;35.78;23.73;;;;;;;21.04;42.10;102867.47;5067303;28;20433;-79
2022/04/30 08:41:46;;;;;;;34.53;25.67;;;;;;;21.01;42.00;102870.94;5071541;28;20020;-91
2022/04/30 08:44:16;;;;;;;38.42;25.58;;;;;;;20.87;42.75;102873.13;5072197;28;20036;-77
2022/04/30 08:46:44;;;;;;;;;;;;;;;20.79;43.16;102868.41;5062258;28;20044;-79
2022/04/30 08:49:10;;;;;;;33.83;21.38;;;;;;;21.03;42.26;102865.84;5074424;28;19927;-83
2022/04/30 08:51:36;;;;;;;34.10;22.58;;;;;;;21.02;42.30;102860.63;5074383;28;20068;-79
2022/04/30 08:54:03;;;;;;;29.73;23.17;;;;;;;21.04;42.53;102859.16;5069909;28;20021;-79
2022/04/30 08:56:28;;;;;;;34.35;24.38;;;;;;;21.13;42.47;102853.53;5070610;28;20126;-80
2022/04/30 08:59:02;;;;;;;36.47;23.75;;;;;;;21.04;42.76;102850.81;5070140;28;20103;-82
2022/04/30 09:01:27;;;;;;;29.00;23.52;;;;;;;21.16;42.50;102852.91;5071329;28;20028;-82
2022/04/30 09:03:55;;;;;;;35.05;24.70;;;;;;;21.20;42.46;102848.28;5071163;28;20039;-78
2022/04/30 09:06:21;;;;;;;34.60;23.48;;;;;;;21.29;42.55;102845.47;5071205;28;20043;-86
2022/04/30 09:08:51;;;;;;;36.92;23.55;;;;;;;21.28;42.80;102843.84;5082853;28;20477;-88
2022/04/30 09:11:28;;;;;;;32.80;24.27;;;;;;;21.19;43.14;102843.88;5066828;28;20033;-77
2022/04/30 09:13:53;;;;;;;28.58;21.88;;;;;;;21.30;42.88;102839.56;5070318;28;20049;-93
2022/04/30 09:16:20;;;;;;;30.95;22.35;;;;;;;21.30;43.06;102844.31;5071757;28;20036;-75
2022/04/30 09:18:48;;;;;;;34.53;23.02;;;;;;;21.21;43.50;102847.13;5067330;28;20032;-79
2022/04/30 09:21:17;;;;;;;29.05;21.63;;;;;;;21.21;43.45;102826.84;5059970;28;20028;-78
2022/04/30 09:23:43;;;;;;;32.17;22.48;;;;;;;21.40;43.07;102829.25;5069551;28;20085;-81
2022/04/30 09:26:10;;;;;;;35.80;22.75;;;;;;;21.34;43.31;102825.84;5069505;28;20272;-82
2022/04/30 09:28:38;;;;;;;26.65;20.75;;;;;;;21.63;42.97;102821.41;5067928;28;20020;-76
2022/04/30 09:31:16;;;;;;;29.65;22.33;;;;;;;21.61;43.20;102816.16;5068422;28;20047;-78
2022/04/30 09:33:55;;;;;;;27.77;20.08;;;;;;;21.96;42.59;102818.66;5069470;28;20060;-77
2022/04/30 09:39:14;;;;;;;27.50;20.98;;;;;;;21.81;43.19;102811.75;5069857;28;20075;-76
2022/04/30 09:41:40;;;;;;;25.65;20.88;;;;;;;21.83;43.11;102817.78;5060145;28;20551;-74
2022/04/30 09:44:07;;;;;;;22.38;19.63;;;;;;;22.10;42.49;102808.91;5064526;28;20111;-75
2022/04/30 09:46:38;;;;;;;27.25;19.83;;;;;;;22.01;43.02;102813.72;5058928;28;20425;-78
2022/04/30 09:54:38;;;;;;;25.58;17.63;;;;;;;22.29;42.55;102800.06;5072135;28;20051;-75
2022/04/30 09:57:07;;;;;;;24.50;18.95;;;;;;;22.44;42.22;102801.34;5073477;28;20386;-79
2022/04/30 09:59:35;;;;;;;23.48;18.83;;;;;;;22.35;42.74;102789.50;5074147;28;20054;-77
2022/04/30 10:02:04;;;;;;;23.13;18.77;;;;;;;22.28;43.07;102792.03;5076774;28;20017;-80
2022/04/30 10:04:30;;;;;;;22.13;17.83;;;;;;;22.50;42.60;102786.03;5062364;28;20507;-74
2022/04/30 10:07:00;;;;;;;22.00;17.88;;;;;;;22.48;42.89;102790.34;5059337;28;20021;-76
2022/04/30 10:09:37;;;;;;;27.40;19.40;;;;;;;22.55;42.64;102787.81;5058056;28;20051;-74
2022/04/30 10:12:14;;;;;;;26.50;18.05;;;;;;;22.73;42.53;102774.47;5057257;28;20032;-76
2022/04/30 10:14:48;;;;;;;23.80;18.98;;;;;;;22.84;42.30;102775.66;5057162;28;20573;-75
2022/04/30 10:17:17;;;;;;;22.77;17.90;;;;;;;22.86;42.06;102770.56;5058553;28;20031;-76
2022/04/30 10:23:02;;;;;;;27.25;20.83;;;;;;;22.68;42.10;102758.81;5052402;28;20119;-76
2022/04/30 10:25:48;;;;;;;21.75;18.15;;;;;;;22.79;42.29;102759.16;5056636;28;20040;-79
2022/04/30 10:28:23;;;;;;;22.13;18.05;;;;;;;22.92;41.82;102761.63;5057488;28;20024;-82
2022/04/30 10:31:11;;;;;;;27.50;19.02;;;;;;;22.67;42.67;102755.22;5054200;28;20032;-74
2022/04/30 10:33:48;;;;;;;22.38;18.38;;;;;;;22.79;42.45;102761.94;5057309;28;20028;-72
2022/04/30 10:36:14;;;;;;;22.73;19.27;;;;;;;22.76;42.37;102757.88;5056700;28;20124;-77
2022/04/30 10:38:42;;;;;;;19.85;17.30;;;;;;;22.83;42.22;102751.72;5054206;28;20032;-75
2022/04/30 10:41:09;;;;;;;23.27;18.40;;;;;;;22.78;42.15;102754.75;5055763;28;20048;-75
2022/04/30 10:43:40;;;;;;;19.88;17.77;;;;;;;22.79;42.26;102748.00;5056901;28;20029;-75
2022/04/30 10:46:17;;;;;;;23.58;18.95;;;;;;;22.69;42.72;102746.50;5056145;28;20044;-74
2022/04/30 10:48:42;;;;;;;20.95;18.70;;;;;;;22.85;42.45;102749.41;5055551;28;20128;-75
2022/04/30 10:51:10;;;;;;;28.13;21.08;;;;;;;22.77;42.62;102744.75;5054820;28;20135;-74
2022/04/30 10:53:46;;;;;;;24.65;18.25;;;;;;;22.81;42.42;102729.75;5070821;28;20032;-74
2022/04/30 10:56:13;;;;;;;22.63;18.88;;;;;;;22.77;42.42;102739.19;5061571;28;20036;-75
2022/04/30 10:58:41;;;;;;;23.83;17.65;;;;;;;22.91;42.32;102732.13;5055978;28;20036;-74
2022/04/30 11:01:15;;;;;;;23.02;19.00;;;;;;;22.96;42.46;102737.44;5055016;28;20039;-74
2022/04/30 11:03:42;;;;;;;25.20;18.92;;;;;;;23.07;42.12;102729.44;5060043;28;20060;-74
2022/04/30 11:06:12;;;;;;;26.92;19.27;;;;;;;23.00;42.43;102726.44;5057860;28;20042;-74
2022/04/30 11:08:38;;;;;;;23.70;17.30;;;;;;;23.23;41.47;102724.75;5056276;28;20032;-78
2022/04/30 11:11:04;;;;;;;21.65;18.17;;;;;;;23.31;41.52;102722.19;5055992;28;20541;-78
2022/04/30 11:13:30;;;;;;;24.55;17.42;;;;;;;23.46;41.42;102724.25;5058330;28;20029;-75
2022/04/30 11:15:59;;;;;;;21.85;18.40;;;;;;;23.36;41.67;102719.16;5056951;28;20028;-76
2022/04/30 11:18:25;;;;;;;23.15;19.80;;;;;;;23.20;41.87;102722.69;5057556;28;20028;-81
2022/04/30 11:21:01;;;;;;;29.55;19.92;;;;;;;23.26;41.94;102720.44;5056330;28;20035;-77
2022/04/30 11:23:26;;;;;;;23.33;19.58;;;;;;;23.41;41.53;102714.13;5057034;28;20151;-78
2022/04/30 11:25:52;;;;;;;22.63;20.05;;;;;;;23.28;41.53;102712.56;5057539;28;20154;-77
2022/04/30 11:28:18;;;;;;;21.45;19.13;;;;;;;23.28;41.58;102703.38;5057115;28;20040;-74
2022/04/30 11:30:45;;;;;;;21.65;19.35;;;;;;;23.11;41.59;102693.28;5056318;28;20036;-79
2022/04/30 11:33:12;;;;;;;26.58;20.23;;;;;;;23.12;41.34;102678.19;5055144;28;20040;-76
2022/04/30 11:35:38;;;;;;;27.38;20.17;;;;;;;23.20;41.31;102689.22;5056497;28;20486;-75
2022/04/30 11:38:08;;;;;;;22.77;19.88;;;;;;;23.08;41.66;102683.66;5054859;28;20078;-81
2022/04/30 11:40:34;;;;;;;22.40;20.00;;;;;;;23.18;41.35;102688.75;5056161;28;20067;-84
2022/04/30 11:43:02;;;;;;;27.08;19.27;;;;;;;23.12;41.62;102670.63;5054926;28;20075;-83
2022/04/30 11:45:29;;;;;;;23.08;19.67;;;;;;;22.93;41.55;102667.66;5054668;28;20021;-79
2022/04/30 11:47:56;;;;;;;22.77;18.63;;;;;;;22.96;41.23;102672.53;5057171;28;20054;-82